createdAt,value
2019-03-28T00:00:08.719Z,50.51
2019-03-28T00:01:08.891Z,50.71
2019-03-28T00:02:09.450Z,50.40
2019-03-28T00:03:08.594Z,50.71
2019-03-28T00:04:08.576Z,50.82
2019-03-28T00:05:08.570Z,50.71
2019-03-28T00:06:08.595Z,51.02
2019-03-28T00:07:08.592Z,50.61
2019-03-28T00:08:08.528Z,51.02
2019-03-28T00:09:08.528Z,50.30
2019-03-28T00:10:08.521Z,49.56
2019-03-28T00:11:09.083Z,48.84
2019-03-28T00:12:08.502Z,48.84
2019-03-28T00:13:08.480Z,49.15
2019-03-28T00:14:08.473Z,49.15
2019-03-28T00:15:08.460Z,49.15
2019-03-28T00:16:08.467Z,48.94
2019-03-28T00:17:08.438Z,49.56
2019-03-28T00:18:08.435Z,49.56
2019-03-28T00:19:08.423Z,49.77
2019-03-28T00:20:08.396Z,49.56
2019-03-28T00:21:08.389Z,49.35
2019-03-28T00:22:08.417Z,49.35
2019-03-28T00:23:08.370Z,48.43
2019-03-28T00:24:08.356Z,48.64
2019-03-28T00:25:08.356Z,48.13
2019-03-28T00:26:08.337Z,48.21
2019-03-28T00:27:08.332Z,48.00
2019-03-28T00:28:08.330Z,48.21
2019-03-28T00:29:08.303Z,48.00
2019-03-28T00:30:08.287Z,47.59
2019-03-28T00:31:08.336Z,47.08
2019-03-28T00:32:08.280Z,47.28
2019-03-28T00:33:08.267Z,47.09
2019-03-28T00:34:08.241Z,48.02
2019-03-28T00:35:08.233Z,48.02
2019-03-28T00:36:08.221Z,48.04
2019-03-28T00:37:09.001Z,48.13
2019-03-28T00:38:08.206Z,48.02
2019-03-28T00:39:08.203Z,48.13
2019-03-28T00:40:08.199Z,48.66
2019-03-28T00:41:08.194Z,48.86
2019-03-28T00:42:08.158Z,48.56
2019-03-28T00:43:08.144Z,48.13
2019-03-28T00:44:08.134Z,48.04
2019-03-28T00:45:08.172Z,48.02
2019-03-28T00:46:08.110Z,48.25
2019-03-28T00:47:08.100Z,47.30
2019-03-28T00:48:08.090Z,47.51
2019-03-28T00:49:08.175Z,47.02
2019-03-28T00:50:08.267Z,48.04
2019-03-28T00:51:08.057Z,48.04
2019-03-28T00:52:08.059Z,48.17
2019-03-28T00:53:08.033Z,48.27
2019-03-28T00:54:08.026Z,48.04
2019-03-28T00:55:08.014Z,47.53
2019-03-28T00:56:08.056Z,47.14
2019-03-28T00:57:07.995Z,47.74
2019-03-28T00:58:07.988Z,48.35
2019-03-28T00:59:07.969Z,48.38
2019-03-28T01:00:07.957Z,48.27
2019-03-28T01:01:07.944Z,48.81
2019-03-28T01:02:07.941Z,48.71
2019-03-28T01:03:07.925Z,47.86
2019-03-28T01:04:07.913Z,48.47
2019-03-28T01:05:07.900Z,48.79
2019-03-28T01:06:07.896Z,48.47
2019-03-28T01:07:07.881Z,48.68
2019-03-28T01:08:07.871Z,48.07
2019-03-28T01:09:07.856Z,48.29
2019-03-28T01:10:07.861Z,49.43
2019-03-28T01:11:07.844Z,48.58
2019-03-28T01:12:07.857Z,47.14
2019-03-28T01:13:07.833Z,47.45
2019-03-28T01:14:08.280Z,47.34
2019-03-28T01:15:07.816Z,46.11
2019-03-28T01:16:07.784Z,46.94
2019-03-28T01:17:07.787Z,47.02
2019-03-28T01:18:07.791Z,47.55
2019-03-28T01:19:07.758Z,47.53
2019-03-28T01:20:07.732Z,47.24
2019-03-28T01:21:07.734Z,45.99
2019-03-28T01:22:07.717Z,46.09
2019-03-28T01:23:07.704Z,46.73
2019-03-28T01:24:07.703Z,47.66
2019-03-28T01:25:07.682Z,47.66
2019-03-28T01:26:07.699Z,47.34
2019-03-28T01:27:07.661Z,47.55
2019-03-28T01:28:07.653Z,48.17
2019-03-28T01:29:07.637Z,47.86
2019-03-28T01:30:07.626Z,48.19
2019-03-28T01:31:07.615Z,48.29
2019-03-28T01:32:07.604Z,48.39
2019-03-28T01:33:07.595Z,47.99
2019-03-28T01:34:08.134Z,47.24
2019-03-28T01:35:07.569Z,47.24
2019-03-28T01:36:07.555Z,47.66
2019-03-28T01:37:07.561Z,47.58
2019-03-28T01:38:07.533Z,47.27
2019-03-28T01:39:07.530Z,46.83
2019-03-28T01:40:07.512Z,46.01
2019-03-28T01:41:07.511Z,46.42
2019-03-28T01:42:07.494Z,45.91
2019-03-28T01:43:07.481Z,46.22
2019-03-28T01:44:07.468Z,47.37
2019-03-28T01:45:08.247Z,47.67
2019-03-28T01:46:07.447Z,47.47
2019-03-28T01:47:07.441Z,47.80
2019-03-28T01:48:08.273Z,48.01
2019-03-28T01:49:07.415Z,48.13
2019-03-28T01:50:07.402Z,48.21
2019-03-28T01:51:07.391Z,47.60
2019-03-28T01:52:07.387Z,47.47
2019-03-28T01:53:07.373Z,45.91
2019-03-28T01:54:07.357Z,44.04
2019-03-28T01:55:07.350Z,44.94
2019-03-28T01:56:07.332Z,44.65
2019-03-28T01:57:11.227Z,44.14
2019-03-28T01:58:07.309Z,43.94
2019-03-28T01:59:07.308Z,44.56
2019-03-28T02:00:07.293Z,43.91
2019-03-28T02:01:07.279Z,44.02
2019-03-28T02:02:07.268Z,44.35
2019-03-28T02:03:07.259Z,44.04
2019-03-28T02:04:07.243Z,43.51
2019-03-28T02:05:07.235Z,43.51
2019-03-28T02:06:07.227Z,43.40
2019-03-28T02:07:07.210Z,42.46
2019-03-28T02:08:07.199Z,42.66
2019-03-28T02:09:07.192Z,43.30
2019-03-28T02:10:07.181Z,42.58
2019-03-28T02:11:07.170Z,43.63
2019-03-28T02:12:07.157Z,43.42
2019-03-28T02:13:07.151Z,43.94
2019-03-28T02:14:07.135Z,44.06
2019-03-28T02:15:07.130Z,43.42
2019-03-28T02:16:07.109Z,43.22
2019-03-28T02:17:07.114Z,43.22
2019-03-28T02:18:07.089Z,42.40
2019-03-28T02:19:07.079Z,42.38
2019-03-28T02:20:07.261Z,43.32
2019-03-28T02:21:09.501Z,43.22
2019-03-28T02:22:07.044Z,43.32
2019-03-28T02:23:07.035Z,43.01
2019-03-28T02:24:07.030Z,43.24
2019-03-28T02:25:07.155Z,42.60
2019-03-28T02:26:07.186Z,42.71
2019-03-28T02:27:07.017Z,42.29
2019-03-28T02:28:07.038Z,42.50
2019-03-28T02:29:07.306Z,42.19
2019-03-28T02:30:07.062Z,42.50
2019-03-28T02:31:06.961Z,42.60
2019-03-28T02:32:06.942Z,42.50
2019-03-28T02:33:06.933Z,41.99
2019-03-28T02:34:07.003Z,41.88
2019-03-28T02:35:06.951Z,41.99
2019-03-28T02:36:06.888Z,42.40
2019-03-28T02:37:06.882Z,42.60
2019-03-28T02:38:06.893Z,42.71
2019-03-28T02:39:06.854Z,43.34
2019-03-28T02:40:07.019Z,42.52
2019-03-28T02:41:06.833Z,42.50
2019-03-28T02:42:06.822Z,41.88
2019-03-28T02:43:06.816Z,42.09
2019-03-28T02:44:06.802Z,42.09
2019-03-28T02:45:06.799Z,42.09
2019-03-28T02:46:06.785Z,42.19
2019-03-28T02:47:06.776Z,41.99
2019-03-28T02:48:06.761Z,41.99
2019-03-28T02:49:06.752Z,42.40
2019-03-28T02:50:06.733Z,42.72
2019-03-28T02:51:06.722Z,42.32
2019-03-28T02:52:06.718Z,42.19
2019-03-28T02:53:06.700Z,42.60
2019-03-28T02:54:06.708Z,42.71
2019-03-28T02:55:06.687Z,42.19
2019-03-28T02:56:06.721Z,43.12
2019-03-28T02:57:07.686Z,43.42
2019-03-28T02:58:06.648Z,43.75
2019-03-28T02:59:06.637Z,43.55
2019-03-28T03:00:06.626Z,43.55
2019-03-28T03:01:06.615Z,43.65
2019-03-28T03:02:06.819Z,44.06
2019-03-28T03:03:06.593Z,44.26
2019-03-28T03:04:06.583Z,44.47
2019-03-28T03:05:06.571Z,44.78
2019-03-28T03:06:06.559Z,44.57
2019-03-28T03:07:06.554Z,44.14
2019-03-28T03:08:07.705Z,44.37
2019-03-28T03:09:06.532Z,44.78
2019-03-28T03:10:06.507Z,44.86
2019-03-28T03:11:06.497Z,45.37
2019-03-28T03:12:06.492Z,45.89
2019-03-28T03:13:06.491Z,45.48
2019-03-28T03:14:06.473Z,45.99
2019-03-28T03:15:06.554Z,46.20
2019-03-28T03:16:06.446Z,46.11
2019-03-28T03:17:06.436Z,45.89
2019-03-28T03:18:07.675Z,46.32
2019-03-28T03:19:06.412Z,46.32
2019-03-28T03:20:06.405Z,45.58
2019-03-28T03:21:06.386Z,46.40
2019-03-28T03:22:06.387Z,46.73
2019-03-28T03:23:06.363Z,46.20
2019-03-28T03:24:06.352Z,46.20
2019-03-28T03:25:06.344Z,45.89
2019-03-28T03:26:06.334Z,46.62
2019-03-28T03:27:06.327Z,47.24
2019-03-28T03:28:06.329Z,47.34
2019-03-28T03:29:06.297Z,47.37
2019-03-28T03:30:06.308Z,47.37
2019-03-28T03:31:06.274Z,47.27
2019-03-28T03:32:06.269Z,47.27
2019-03-28T03:33:06.283Z,47.16
2019-03-28T03:34:06.244Z,47.58
2019-03-28T03:35:06.236Z,46.94
2019-03-28T03:36:06.218Z,46.22
2019-03-28T03:37:06.212Z,46.73
2019-03-28T03:38:06.195Z,46.83
2019-03-28T03:39:06.186Z,46.20
2019-03-28T03:40:06.207Z,46.91
2019-03-28T03:41:06.183Z,47.55
2019-03-28T03:42:06.152Z,47.14
2019-03-28T03:43:06.152Z,47.66
2019-03-28T03:44:06.137Z,47.34
2019-03-28T03:45:06.126Z,47.14
2019-03-28T03:46:06.109Z,47.12
2019-03-28T03:47:06.113Z,47.96
2019-03-28T03:48:06.089Z,47.96
2019-03-28T03:49:06.075Z,48.17
2019-03-28T03:50:06.064Z,48.71
2019-03-28T03:51:06.057Z,48.71
2019-03-28T03:52:06.040Z,48.50
2019-03-28T03:53:06.033Z,48.93
2019-03-28T03:54:06.029Z,48.81
2019-03-28T03:55:06.007Z,48.29
2019-03-28T03:56:06.003Z,48.39
2019-03-28T03:57:05.990Z,48.50
2019-03-28T03:58:15.641Z,48.68
2019-03-28T03:59:06.967Z,48.58
2019-03-28T04:00:05.957Z,48.38
2019-03-28T04:01:05.944Z,49.22
2019-03-28T04:02:05.933Z,49.63
2019-03-28T04:03:05.925Z,49.63
2019-03-28T04:04:05.934Z,49.43
2019-03-28T04:05:05.901Z,49.65
2019-03-28T04:06:05.889Z,50.37
2019-03-28T04:07:05.881Z,50.14
2019-03-28T04:08:05.872Z,49.73
2019-03-28T04:09:05.856Z,49.43
2019-03-28T04:10:05.854Z,49.73
2019-03-28T04:11:05.833Z,49.73
2019-03-28T04:12:05.850Z,50.14
2019-03-28T04:13:05.863Z,50.35
2019-03-28T04:14:05.801Z,49.32
2019-03-28T04:15:05.819Z,49.32
2019-03-28T04:16:05.784Z,49.43
2019-03-28T04:17:05.766Z,49.73
2019-03-28T04:18:05.752Z,49.43
2019-03-28T04:19:05.953Z,50.56
2019-03-28T04:20:05.739Z,49.73
2019-03-28T04:21:05.727Z,49.94
2019-03-28T04:22:05.714Z,49.22
2019-03-28T04:23:05.711Z,49.32
2019-03-28T04:24:05.692Z,49.43
2019-03-28T04:25:05.673Z,50.24
2019-03-28T04:26:06.007Z,49.84
2019-03-28T04:27:05.654Z,49.43
2019-03-28T04:28:05.649Z,49.32
2019-03-28T04:29:05.639Z,49.43
2019-03-28T04:30:05.626Z,49.43
2019-03-28T04:31:05.792Z,49.73
2019-03-28T04:32:05.600Z,49.55
2019-03-28T04:33:05.607Z,49.55
2019-03-28T04:34:07.825Z,48.60
2019-03-28T04:35:05.573Z,48.58
2019-03-28T04:36:05.567Z,48.38
2019-03-28T04:37:06.507Z,48.58
2019-03-28T04:38:05.540Z,48.50
2019-03-28T04:39:05.526Z,48.60
2019-03-28T04:40:05.515Z,48.29
2019-03-28T04:41:05.535Z,48.19
2019-03-28T04:42:05.492Z,48.50
2019-03-28T04:43:05.479Z,48.52
2019-03-28T04:44:05.470Z,48.50
2019-03-28T04:45:05.646Z,48.81
2019-03-28T04:46:05.442Z,48.71
2019-03-28T04:47:05.433Z,48.81
2019-03-28T04:48:05.420Z,48.50
2019-03-28T04:49:05.414Z,48.50
2019-03-28T04:50:05.396Z,48.50
2019-03-28T04:51:05.383Z,49.22
2019-03-28T04:52:05.375Z,48.63
2019-03-28T04:53:05.365Z,48.81
2019-03-28T04:54:05.354Z,48.83
2019-03-28T04:55:05.341Z,48.71
2019-03-28T04:56:05.328Z,48.60
2019-03-28T04:57:05.320Z,48.83
2019-03-28T04:58:05.305Z,49.55
2019-03-28T04:59:05.294Z,49.65
2019-03-28T05:00:05.287Z,49.01
2019-03-28T05:01:05.276Z,49.43
2019-03-28T05:02:05.435Z,49.04
2019-03-28T05:03:05.249Z,49.47
2019-03-28T05:04:05.239Z,50.06
2019-03-28T05:05:05.228Z,49.55
2019-03-28T05:06:05.218Z,49.44
2019-03-28T05:07:05.209Z,49.65
2019-03-28T05:08:05.194Z,49.44
2019-03-28T05:09:05.180Z,49.65
2019-03-28T05:10:05.174Z,49.76
2019-03-28T05:11:05.158Z,49.55
2019-03-28T05:12:05.155Z,49.55
2019-03-28T05:13:05.189Z,49.35
2019-03-28T05:14:05.131Z,49.63
2019-03-28T05:15:06.030Z,49.73
2019-03-28T05:16:05.107Z,49.55
2019-03-28T05:17:05.096Z,49.35
2019-03-28T05:18:05.085Z,49.35
2019-03-28T05:19:05.073Z,49.04
2019-03-28T05:20:05.060Z,49.22
2019-03-28T05:21:05.050Z,49.01
2019-03-28T05:22:05.043Z,48.81
2019-03-28T05:23:05.028Z,48.71
2019-03-28T05:24:05.019Z,49.22
2019-03-28T05:25:05.013Z,48.60
2019-03-28T05:26:04.991Z,48.71
2019-03-28T05:27:04.982Z,48.60
2019-03-28T05:28:04.973Z,48.81
2019-03-28T05:29:04.958Z,48.81
2019-03-28T05:30:06.566Z,48.91
2019-03-28T05:31:04.936Z,48.71
2019-03-28T05:32:04.925Z,49.11
2019-03-28T05:33:04.913Z,49.01
2019-03-28T05:34:04.906Z,48.47
2019-03-28T05:35:04.896Z,48.68
2019-03-28T05:36:04.894Z,48.58
2019-03-28T05:37:04.873Z,48.35
2019-03-28T05:38:04.862Z,48.56
2019-03-28T05:39:04.851Z,48.25
2019-03-28T05:40:04.839Z,48.46
2019-03-28T05:41:04.829Z,48.66
2019-03-28T05:42:04.817Z,48.35
2019-03-28T05:43:04.811Z,47.26
2019-03-28T05:44:04.799Z,45.78
2019-03-28T05:45:04.789Z,43.79
2019-03-28T05:46:04.780Z,44.08
2019-03-28T05:47:04.763Z,44.06
2019-03-28T05:48:04.749Z,43.53
2019-03-28T05:49:04.741Z,43.10
2019-03-28T05:50:04.728Z,42.29
2019-03-28T05:51:04.718Z,42.06
2019-03-28T05:52:04.706Z,41.65
2019-03-28T05:53:04.698Z,41.73
2019-03-28T05:54:04.683Z,41.63
2019-03-28T05:55:05.497Z,41.42
2019-03-28T05:56:04.686Z,40.80
2019-03-28T05:57:04.651Z,41.20
2019-03-28T05:58:04.645Z,41.08
2019-03-28T05:59:10.632Z,40.66
2019-03-28T06:00:05.617Z,40.78
2019-03-28T06:01:04.638Z,40.66
2019-03-28T06:02:04.624Z,40.12
2019-03-28T06:03:04.585Z,40.23
2019-03-28T06:04:04.603Z,39.50
2019-03-28T06:05:04.589Z,38.89
2019-03-28T06:06:04.557Z,38.68
2019-03-28T06:07:04.542Z,39.31
2019-03-28T06:08:04.530Z,39.60
2019-03-28T06:09:04.518Z,39.62
2019-03-28T06:10:04.512Z,39.31
2019-03-28T06:11:04.510Z,39.64
2019-03-28T06:12:04.494Z,40.25
2019-03-28T06:13:04.482Z,40.78
2019-03-28T06:14:04.466Z,39.60
2019-03-28T06:15:04.450Z,39.60
2019-03-28T06:16:04.451Z,39.62
2019-03-28T06:17:04.453Z,38.67
2019-03-28T06:18:04.439Z,38.97
2019-03-28T06:19:04.418Z,39.38
2019-03-28T06:20:04.440Z,39.17
2019-03-28T06:21:04.401Z,38.45
2019-03-28T06:22:04.390Z,38.75
2019-03-28T06:23:04.374Z,37.19
2019-03-28T06:24:05.295Z,39.58
2019-03-28T06:25:05.978Z,38.61
2019-03-28T06:26:04.339Z,36.88
2019-03-28T06:27:04.324Z,37.39
2019-03-28T06:28:04.350Z,37.82
2019-03-28T06:29:04.313Z,37.07
2019-03-28T06:30:04.321Z,36.00
2019-03-28T06:31:04.278Z,35.88
2019-03-28T06:32:04.308Z,36.25
2019-03-28T06:33:04.258Z,36.12
2019-03-28T06:34:04.239Z,36.12
2019-03-28T06:35:04.235Z,35.61
2019-03-28T06:36:04.253Z,36.68
2019-03-28T06:37:04.217Z,36.88
2019-03-28T06:38:04.197Z,37.19
2019-03-28T06:39:04.200Z,35.95
2019-03-28T06:40:04.278Z,35.94
2019-03-28T06:41:04.169Z,34.70
2019-03-28T06:42:04.161Z,36.44
2019-03-28T06:43:04.164Z,37.12
2019-03-28T06:44:04.146Z,35.85
2019-03-28T06:45:04.192Z,35.29
2019-03-28T06:46:04.204Z,33.91
2019-03-28T06:47:04.146Z,33.69
2019-03-28T06:48:04.195Z,32.93
2019-03-28T06:49:04.179Z,34.42
2019-03-28T06:50:04.066Z,32.55
2019-03-28T06:51:04.180Z,33.20
2019-03-28T06:52:04.145Z,32.87
2019-03-28T06:53:04.107Z,32.65
2019-03-28T06:54:04.502Z,31.94
2019-03-28T06:55:04.049Z,32.64
2019-03-28T06:56:04.055Z,33.59
2019-03-28T06:57:04.040Z,34.08
2019-03-28T06:58:04.012Z,33.26
2019-03-28T06:59:03.966Z,32.36
2019-03-28T07:00:03.954Z,32.68
2019-03-28T07:01:03.945Z,33.81
2019-03-28T07:02:03.938Z,34.09
2019-03-28T07:03:03.917Z,33.74
2019-03-28T07:04:04.502Z,34.75
2019-03-28T07:05:03.905Z,33.12
2019-03-28T07:06:03.889Z,34.87
2019-03-28T07:07:03.876Z,34.94
2019-03-28T07:08:03.878Z,34.55
2019-03-28T07:09:03.851Z,33.20
2019-03-28T07:10:03.862Z,33.22
2019-03-28T07:11:03.830Z,34.25
2019-03-28T07:12:03.824Z,33.72
2019-03-28T07:13:03.812Z,32.90
2019-03-28T07:14:03.804Z,32.71
2019-03-28T07:15:03.792Z,32.56
2019-03-28T07:16:03.771Z,33.12
2019-03-28T07:17:03.772Z,33.94
2019-03-28T07:18:03.754Z,32.81
2019-03-28T07:19:03.745Z,33.23
2019-03-28T07:20:03.729Z,34.14
2019-03-28T07:21:03.721Z,32.75
2019-03-28T07:22:03.702Z,32.36
2019-03-28T07:23:03.696Z,32.76
2019-03-28T07:24:03.694Z,32.35
2019-03-28T07:25:03.675Z,32.13
2019-03-28T07:26:03.660Z,31.02
2019-03-28T07:27:03.652Z,31.80
2019-03-28T07:28:06.230Z,32.82
2019-03-28T07:29:03.635Z,32.84
2019-03-28T07:30:03.620Z,33.55
2019-03-28T07:31:03.603Z,33.00
2019-03-28T07:32:03.600Z,32.16
2019-03-28T07:33:03.612Z,32.10
2019-03-28T07:34:03.577Z,32.17
2019-03-28T07:35:03.564Z,31.25
2019-03-28T07:36:03.563Z,32.31
2019-03-28T07:37:03.550Z,33.55
2019-03-28T07:38:03.592Z,31.70
2019-03-28T07:39:03.521Z,32.20
2019-03-28T07:40:03.511Z,33.22
2019-03-28T07:41:03.495Z,31.77
2019-03-28T07:42:03.494Z,30.83
2019-03-28T07:43:03.475Z,31.34
2019-03-28T07:44:03.466Z,30.70
2019-03-28T07:45:03.458Z,29.88
2019-03-28T07:46:03.482Z,31.28
2019-03-28T07:47:03.433Z,32.20
2019-03-28T07:48:03.423Z,31.10
2019-03-28T07:49:03.422Z,30.86
2019-03-28T07:50:03.397Z,30.36
2019-03-28T07:51:03.384Z,32.47
2019-03-28T07:52:03.382Z,31.70
2019-03-28T07:53:03.379Z,32.62
2019-03-28T07:54:03.353Z,31.05
2019-03-28T07:55:03.434Z,30.83
2019-03-28T07:56:03.347Z,30.82
2019-03-28T07:57:03.346Z,30.55
2019-03-28T07:58:03.316Z,30.52
2019-03-28T07:59:03.329Z,30.93
2019-03-28T08:00:04.757Z,30.11
2019-03-28T08:01:03.330Z,30.40
2019-03-28T08:02:03.310Z,29.24
2019-03-28T08:03:03.278Z,29.85
2019-03-28T08:04:03.249Z,30.00
2019-03-28T08:05:03.278Z,30.34
2019-03-28T08:06:03.262Z,30.99
2019-03-28T08:07:03.220Z,31.06
2019-03-28T08:08:03.205Z,31.02
2019-03-28T08:09:03.220Z,30.54
2019-03-28T08:10:03.192Z,30.66
2019-03-28T08:11:03.174Z,30.21
2019-03-28T08:12:03.224Z,30.05
2019-03-28T08:13:03.241Z,29.46
2019-03-28T08:14:03.166Z,28.61
2019-03-28T08:15:03.114Z,28.94
2019-03-28T08:16:03.107Z,28.52
2019-03-28T08:17:03.098Z,28.50
2019-03-28T08:18:03.085Z,28.14
2019-03-28T08:19:03.094Z,27.61
2019-03-28T08:20:03.159Z,29.57
2019-03-28T08:21:03.058Z,29.40
2019-03-28T08:22:03.049Z,29.69
2019-03-28T08:23:03.034Z,29.83
2019-03-28T08:24:03.027Z,30.82
2019-03-28T08:25:03.227Z,30.87
2019-03-28T08:26:03.011Z,30.24
2019-03-28T08:27:02.998Z,30.13
2019-03-28T08:28:03.056Z,30.83
2019-03-28T08:29:02.964Z,30.62
2019-03-28T08:30:02.959Z,29.89
2019-03-28T08:31:02.950Z,30.30
2019-03-28T08:32:02.945Z,29.85
2019-03-28T08:33:02.929Z,28.41
2019-03-28T08:34:02.969Z,28.64
2019-03-28T08:35:26.650Z,29.11
2019-03-28T08:36:02.887Z,27.80
2019-03-28T08:37:02.886Z,27.70
2019-03-28T08:38:03.063Z,28.06
2019-03-28T08:39:02.871Z,29.14
2019-03-28T08:40:02.860Z,29.16
2019-03-28T08:41:02.845Z,28.61
2019-03-28T08:42:02.834Z,28.94
2019-03-28T08:43:02.824Z,28.41
2019-03-28T08:44:02.801Z,27.84
2019-03-28T08:45:02.848Z,27.91
2019-03-28T08:46:02.830Z,28.22
2019-03-28T08:47:06.057Z,28.65
2019-03-28T08:48:02.767Z,29.10
2019-03-28T08:49:02.755Z,29.82
2019-03-28T08:50:02.737Z,29.50
2019-03-28T08:51:02.732Z,30.58
2019-03-28T08:52:02.717Z,29.16
2019-03-28T08:53:02.710Z,28.35
2019-03-28T08:54:02.694Z,29.75
2019-03-28T08:55:02.818Z,27.69
2019-03-28T08:56:02.733Z,27.84
2019-03-28T08:57:02.666Z,29.47
2019-03-28T08:58:02.661Z,28.70
2019-03-28T08:59:02.660Z,28.12
2019-03-28T09:00:02.630Z,27.56
2019-03-28T09:01:02.633Z,28.42
2019-03-28T09:02:05.037Z,28.42
2019-03-28T09:03:02.607Z,28.67
2019-03-28T09:04:02.631Z,29.79
2019-03-28T09:05:02.673Z,29.80
2019-03-28T09:06:02.586Z,29.19
2019-03-28T09:07:02.594Z,27.93
2019-03-28T09:08:02.602Z,29.80
2019-03-28T09:09:02.681Z,29.80
2019-03-28T09:10:02.526Z,29.69
2019-03-28T09:11:02.517Z,29.76
2019-03-28T09:12:02.543Z,28.54
2019-03-28T09:13:02.497Z,28.84
2019-03-28T09:14:02.482Z,28.54
2019-03-28T09:15:02.527Z,28.34
2019-03-28T09:16:02.480Z,28.71
2019-03-28T09:17:02.472Z,28.51
2019-03-28T09:18:02.511Z,28.54
2019-03-28T09:19:02.607Z,28.42
2019-03-28T09:20:02.454Z,28.71
2019-03-28T09:21:02.403Z,28.63
2019-03-28T09:22:02.403Z,30.70
2019-03-28T09:23:02.442Z,29.95
2019-03-28T09:24:02.378Z,27.26
2019-03-28T09:25:02.428Z,27.54
2019-03-28T09:26:04.408Z,27.74
2019-03-28T09:27:02.348Z,28.21
2019-03-28T09:28:02.327Z,28.61
2019-03-28T09:29:02.330Z,27.51
2019-03-28T09:30:02.312Z,28.08
2019-03-28T09:31:02.307Z,27.50
2019-03-28T09:32:02.300Z,27.80
2019-03-28T09:33:02.276Z,28.05
2019-03-28T09:34:02.279Z,27.42
2019-03-28T09:35:02.401Z,28.11
2019-03-28T09:36:02.243Z,27.82
2019-03-28T09:37:02.232Z,27.08
2019-03-28T09:38:02.232Z,26.76
2019-03-28T09:39:02.210Z,26.07
2019-03-28T09:40:02.199Z,26.33
2019-03-28T09:41:02.216Z,25.74
2019-03-28T09:42:02.189Z,26.75
2019-03-28T09:43:02.189Z,27.28
2019-03-28T09:44:02.158Z,26.97
2019-03-28T09:45:02.188Z,27.75
2019-03-28T09:46:02.296Z,27.30
2019-03-28T09:47:02.124Z,27.67
2019-03-28T09:48:02.126Z,27.62
2019-03-28T09:49:02.129Z,26.60
2019-03-28T09:50:02.096Z,25.92
2019-03-28T09:51:02.087Z,25.90
2019-03-28T09:52:02.090Z,26.45
2019-03-28T09:53:02.064Z,26.82
2019-03-28T09:54:02.058Z,26.70
2019-03-28T09:55:02.071Z,25.82
2019-03-28T09:56:02.041Z,27.70
2019-03-28T09:57:02.029Z,28.94
2019-03-28T09:58:02.007Z,26.97
2019-03-28T09:59:02.037Z,27.29
2019-03-28T10:00:02.042Z,27.68
2019-03-28T10:01:03.434Z,26.51
2019-03-28T10:02:02.537Z,26.15
2019-03-28T10:03:01.955Z,26.17
2019-03-28T10:04:01.955Z,28.44
2019-03-28T10:05:01.939Z,28.74
2019-03-28T10:06:01.930Z,28.52
2019-03-28T10:07:01.920Z,28.80
2019-03-28T10:08:01.915Z,27.15
2019-03-28T10:09:01.905Z,28.22
2019-03-28T10:10:02.084Z,28.20
2019-03-28T10:11:01.873Z,28.42
2019-03-28T10:12:01.932Z,29.10
2019-03-28T10:13:01.948Z,28.50
2019-03-28T10:14:01.861Z,28.25
2019-03-28T10:15:01.836Z,27.39
2019-03-28T10:16:01.828Z,26.41
2019-03-28T10:17:01.838Z,28.72
2019-03-28T10:18:01.803Z,27.89
2019-03-28T10:19:01.817Z,27.53
2019-03-28T10:20:01.795Z,27.15
2019-03-28T10:21:01.782Z,28.28
2019-03-28T10:22:01.772Z,27.48
2019-03-28T10:23:02.029Z,29.14
2019-03-28T10:24:01.907Z,28.78
2019-03-28T10:25:01.840Z,27.16
2019-03-28T10:26:01.725Z,28.30
2019-03-28T10:27:01.827Z,28.25
2019-03-28T10:28:01.701Z,29.96
2019-03-28T10:29:01.691Z,30.26
2019-03-28T10:30:01.855Z,29.83
2019-03-28T10:31:15.522Z,28.50
2019-03-28T10:32:02.677Z,29.61
2019-03-28T10:33:01.670Z,27.84
2019-03-28T10:34:01.659Z,28.49
2019-03-28T10:35:01.718Z,29.72
2019-03-28T10:36:01.639Z,28.27
2019-03-28T10:37:01.607Z,28.17
2019-03-28T10:38:01.607Z,28.20
2019-03-28T10:39:01.591Z,28.60
2019-03-28T10:40:01.578Z,28.52
2019-03-28T10:41:02.524Z,28.44
2019-03-28T10:42:01.554Z,28.32
2019-03-28T10:43:01.554Z,28.55
2019-03-28T10:44:01.535Z,28.90
2019-03-28T10:45:01.523Z,27.94
2019-03-28T10:46:01.522Z,27.76
2019-03-28T10:47:04.686Z,27.89
2019-03-28T10:48:01.738Z,28.75
2019-03-28T10:49:01.697Z,29.23
2019-03-28T10:50:04.044Z,27.80
2019-03-28T10:51:01.669Z,27.25
2019-03-28T10:52:04.094Z,28.05
2019-03-28T10:53:01.495Z,27.36
2019-03-28T10:54:01.460Z,28.09
2019-03-28T10:55:01.426Z,28.52
2019-03-28T10:56:01.442Z,27.58
2019-03-28T10:57:12.990Z,28.01
2019-03-28T10:58:02.394Z,28.50
2019-03-28T10:59:01.376Z,27.48
2019-03-28T11:00:01.382Z,27.98
2019-03-28T11:01:01.375Z,27.03
2019-03-28T11:02:01.355Z,27.84
2019-03-28T11:03:01.465Z,28.26
2019-03-28T11:04:01.381Z,30.02
2019-03-28T11:05:01.324Z,27.44
2019-03-28T11:06:01.313Z,27.14
2019-03-28T11:07:01.308Z,28.21
2019-03-28T11:08:01.287Z,30.15
2019-03-28T11:09:01.275Z,29.92
2019-03-28T11:10:01.403Z,29.83
2019-03-28T11:11:01.260Z,29.62
2019-03-28T11:12:01.243Z,28.60
2019-03-28T11:13:01.231Z,30.64
2019-03-28T11:14:01.233Z,30.87
2019-03-28T11:15:01.217Z,30.47
2019-03-28T11:16:01.212Z,29.52
2019-03-28T11:17:01.233Z,29.79
2019-03-28T11:18:01.203Z,29.13
2019-03-28T11:19:01.176Z,30.82
2019-03-28T11:20:01.173Z,31.51
2019-03-28T11:21:01.201Z,30.87
2019-03-28T11:22:01.159Z,30.34
2019-03-28T11:23:02.368Z,30.99
2019-03-28T11:24:01.127Z,30.79
2019-03-28T11:25:01.100Z,31.82
2019-03-28T11:26:01.099Z,31.81
2019-03-28T11:27:01.097Z,32.21
2019-03-28T11:28:01.076Z,32.04
2019-03-28T11:29:01.243Z,32.29
2019-03-28T11:30:01.051Z,31.68
2019-03-28T11:31:01.044Z,31.70
2019-03-28T11:32:01.034Z,32.14
2019-03-28T11:33:01.028Z,30.94
2019-03-28T11:34:01.017Z,31.61
2019-03-28T11:35:01.097Z,30.96
2019-03-28T11:36:00.997Z,30.79
2019-03-28T11:37:00.981Z,31.48
2019-03-28T11:38:00.970Z,30.46
2019-03-28T11:39:02.839Z,30.31
2019-03-28T11:40:00.949Z,29.10
2019-03-28T11:41:00.943Z,30.14
2019-03-28T11:42:01.998Z,30.24
2019-03-28T11:43:00.921Z,30.48
2019-03-28T11:44:00.907Z,29.27
2019-03-28T11:45:00.902Z,27.86
2019-03-28T11:46:00.895Z,28.61
2019-03-28T11:47:00.880Z,30.02
2019-03-28T11:48:00.874Z,30.26
2019-03-28T11:49:00.872Z,30.14
2019-03-28T11:50:00.870Z,29.96
2019-03-28T11:51:00.907Z,31.00
2019-03-28T11:52:00.894Z,30.36
2019-03-28T11:53:00.855Z,30.34
2019-03-28T11:54:00.903Z,29.55
2019-03-28T11:55:00.792Z,30.66
2019-03-28T11:56:00.950Z,28.70
2019-03-28T11:57:00.790Z,30.58
2019-03-28T11:58:00.814Z,30.15
2019-03-28T11:59:04.222Z,30.96
2019-03-28T12:00:00.996Z,29.75
2019-03-28T12:01:00.855Z,29.82
2019-03-28T12:02:18.646Z,30.67
2019-03-28T12:03:01.714Z,28.49
2019-03-28T12:04:00.901Z,31.35
2019-03-28T12:05:00.697Z,30.82
2019-03-28T12:06:00.695Z,31.32
2019-03-28T12:07:00.681Z,29.53
2019-03-28T12:08:00.666Z,29.03
2019-03-28T12:09:00.655Z,29.86
2019-03-28T12:10:00.657Z,28.58
2019-03-28T12:11:00.631Z,27.72
2019-03-28T12:12:00.627Z,27.39
2019-03-28T12:13:00.616Z,25.65
2019-03-28T12:14:00.600Z,26.01
2019-03-28T12:15:00.641Z,25.53
2019-03-28T12:16:00.580Z,26.25
2019-03-28T12:17:00.574Z,28.63
2019-03-28T12:18:00.555Z,28.34
2019-03-28T12:19:00.548Z,28.75
2019-03-28T12:20:00.565Z,28.01
2019-03-28T12:21:00.536Z,27.76
2019-03-28T12:22:00.523Z,26.45
2019-03-28T12:23:00.515Z,28.01
2019-03-28T12:24:00.504Z,28.38
2019-03-28T12:25:00.520Z,27.81
2019-03-28T12:26:00.511Z,27.97
2019-03-28T12:27:00.495Z,28.87
2019-03-28T12:28:00.622Z,28.41
2019-03-28T12:29:00.536Z,28.42
2019-03-28T12:30:00.576Z,28.03
2019-03-28T12:31:00.424Z,28.40
2019-03-28T12:32:13.358Z,27.81
2019-03-28T12:33:01.406Z,29.04
2019-03-28T12:34:00.411Z,27.91
2019-03-28T12:35:00.451Z,27.49
2019-03-28T12:36:00.375Z,28.05
2019-03-28T12:37:00.478Z,27.97
2019-03-28T12:38:00.352Z,26.51
2019-03-28T12:39:00.410Z,26.46
2019-03-28T12:40:00.610Z,27.61
2019-03-28T12:41:00.453Z,27.81
2019-03-28T12:42:00.321Z,29.14
2019-03-28T12:43:00.300Z,28.23
2019-03-28T12:44:00.405Z,28.68
2019-03-28T12:45:00.344Z,27.53
2019-03-28T12:46:00.288Z,28.47
2019-03-28T12:47:00.262Z,28.55
2019-03-28T12:48:00.274Z,27.31
2019-03-28T12:49:00.253Z,28.42
2019-03-28T12:50:00.300Z,27.82
2019-03-28T12:51:00.871Z,27.33
2019-03-28T12:52:00.209Z,27.53